sensor_id;sensor_type;location;lat;lon;timestamp;temperature;humidity
25436;DHT22;13363;52.772;-3.890;2022-07-06T00:01:51;16.80;99.90
25436;DHT22;13363;52.772;-3.890;2022-07-06T00:04:18;16.70;99.90
25436;DHT22;13363;52.772;-3.890;2022-07-06T00:06:44;16.70;99.90
25436;DHT22;13363;52.772;-3.890;2022-07-06T00:09:10;16.70;99.90
25436;DHT22;13363;52.772;-3.890;2022-07-06T00:11:36;16.70;99.90
25436;DHT22;13363;52.772;-3.890;2022-07-06T00:14:02;16.70;99.90
25436;DHT22;13363;52.772;-3.890;2022-07-06T00:16:29;16.70;99.90
25436;DHT22;13363;52.772;-3.890;2022-07-06T00:18:55;16.80;99.90
25436;DHT22;13363;52.772;-3.890;2022-07-06T00:21:21;16.70;99.90
25436;DHT22;13363;52.772;-3.890;2022-07-06T00:23:47;16.70;99.90
25436;DHT22;13363;52.772;-3.890;2022-07-06T00:26:13;16.70;99.90
25436;DHT22;13363;52.772;-3.890;2022-07-06T00:28:39;16.70;99.90
25436;DHT22;13363;52.772;-3.890;2022-07-06T00:31:05;16.70;99.90
25436;DHT22;13363;52.772;-3.890;2022-07-06T00:33:31;16.70;99.90
25436;DHT22;13363;52.772;-3.890;2022-07-06T00:35:57;16.70;99.90
25436;DHT22;13363;52.772;-3.890;2022-07-06T00:38:23;16.70;99.90
25436;DHT22;13363;52.772;-3.890;2022-07-06T00:40:49;16.70;99.90
25436;DHT22;13363;52.772;-3.890;2022-07-06T00:43:15;16.70;99.90
25436;DHT22;13363;52.772;-3.890;2022-07-06T00:45:41;16.70;99.90
25436;DHT22;13363;52.772;-3.890;2022-07-06T00:48:07;16.60;99.90
25436;DHT22;13363;52.772;-3.890;2022-07-06T00:50:33;16.60;99.90
25436;DHT22;13363;52.772;-3.890;2022-07-06T00:53:02;16.60;99.90
25436;DHT22;13363;52.772;-3.890;2022-07-06T00:55:30;16.60;99.90
25436;DHT22;13363;52.772;-3.890;2022-07-06T00:57:57;16.60;99.90
25436;DHT22;13363;52.772;-3.890;2022-07-06T01:00:25;16.60;99.90
25436;DHT22;13363;52.772;-3.890;2022-07-06T01:02:52;16.70;99.90
25436;DHT22;13363;52.772;-3.890;2022-07-06T01:05:19;16.70;99.90
25436;DHT22;13363;52.772;-3.890;2022-07-06T01:07:47;16.70;99.90
25436;DHT22;13363;52.772;-3.890;2022-07-06T01:10:15;16.70;99.90
25436;DHT22;13363;52.772;-3.890;2022-07-06T01:12:43;16.70;99.90
25436;DHT22;13363;52.772;-3.890;2022-07-06T01:15:15;16.70;99.90
25436;DHT22;13363;52.772;-3.890;2022-07-06T01:17:42;16.70;99.90
25436;DHT22;13363;52.772;-3.890;2022-07-06T01:20:22;16.70;99.90
25436;DHT22;13363;52.772;-3.890;2022-07-06T01:22:50;16.70;99.90
25436;DHT22;13363;52.772;-3.890;2022-07-06T01:25:16;16.70;99.90
25436;DHT22;13363;52.772;-3.890;2022-07-06T01:27:43;16.70;99.90
25436;DHT22;13363;52.772;-3.890;2022-07-06T01:30:12;16.70;99.90
25436;DHT22;13363;52.772;-3.890;2022-07-06T01:32:39;16.70;99.90
25436;DHT22;13363;52.772;-3.890;2022-07-06T01:35:06;16.70;99.90
25436;DHT22;13363;52.772;-3.890;2022-07-06T01:37:32;16.70;99.90
25436;DHT22;13363;52.772;-3.890;2022-07-06T01:39:59;16.70;99.90
25436;DHT22;13363;52.772;-3.890;2022-07-06T01:42:26;16.70;99.90
25436;DHT22;13363;52.772;-3.890;2022-07-06T01:44:52;16.70;99.90
25436;DHT22;13363;52.772;-3.890;2022-07-06T01:47:18;16.70;99.90
25436;DHT22;13363;52.772;-3.890;2022-07-06T01:49:44;16.70;99.90
25436;DHT22;13363;52.772;-3.890;2022-07-06T01:52:10;16.70;99.90
25436;DHT22;13363;52.772;-3.890;2022-07-06T01:54:36;16.70;99.90
25436;DHT22;13363;52.772;-3.890;2022-07-06T01:57:02;16.70;99.90
25436;DHT22;13363;52.772;-3.890;2022-07-06T01:59:28;16.70;99.90
25436;DHT22;13363;52.772;-3.890;2022-07-06T02:01:53;16.70;99.90
25436;DHT22;13363;52.772;-3.890;2022-07-06T02:04:19;16.70;99.90
25436;DHT22;13363;52.772;-3.890;2022-07-06T02:06:45;16.60;99.90
25436;DHT22;13363;52.772;-3.890;2022-07-06T02:09:11;16.60;99.90
25436;DHT22;13363;52.772;-3.890;2022-07-06T02:11:37;16.60;99.90
25436;DHT22;13363;52.772;-3.890;2022-07-06T02:14:03;16.60;99.90
25436;DHT22;13363;52.772;-3.890;2022-07-06T02:16:29;16.60;99.90
25436;DHT22;13363;52.772;-3.890;2022-07-06T02:18:55;16.60;99.90
25436;DHT22;13363;52.772;-3.890;2022-07-06T02:21:21;16.60;99.90
25436;DHT22;13363;52.772;-3.890;2022-07-06T02:23:47;16.60;99.90
25436;DHT22;13363;52.772;-3.890;2022-07-06T02:26:12;16.60;99.90
25436;DHT22;13363;52.772;-3.890;2022-07-06T02:28:38;16.60;99.90
25436;DHT22;13363;52.772;-3.890;2022-07-06T02:31:04;16.60;99.90
25436;DHT22;13363;52.772;-3.890;2022-07-06T02:33:30;16.60;99.90
25436;DHT22;13363;52.772;-3.890;2022-07-06T02:35:56;16.70;99.90
25436;DHT22;13363;52.772;-3.890;2022-07-06T02:38:22;16.70;99.90
25436;DHT22;13363;52.772;-3.890;2022-07-06T02:40:48;16.70;99.90
25436;DHT22;13363;52.772;-3.890;2022-07-06T02:43:14;16.70;99.90
25436;DHT22;13363;52.772;-3.890;2022-07-06T02:45:40;16.70;99.90
25436;DHT22;13363;52.772;-3.890;2022-07-06T02:48:06;16.70;99.90
25436;DHT22;13363;52.772;-3.890;2022-07-06T02:50:32;16.70;99.90
25436;DHT22;13363;52.772;-3.890;2022-07-06T02:52:57;16.70;99.90
25436;DHT22;13363;52.772;-3.890;2022-07-06T02:55:24;16.70;99.90
25436;DHT22;13363;52.772;-3.890;2022-07-06T02:57:50;16.70;99.90
25436;DHT22;13363;52.772;-3.890;2022-07-06T03:00:16;16.70;99.90
25436;DHT22;13363;52.772;-3.890;2022-07-06T03:02:42;16.70;99.90
25436;DHT22;13363;52.772;-3.890;2022-07-06T03:05:08;16.70;99.90
25436;DHT22;13363;52.772;-3.890;2022-07-06T03:07:34;16.70;99.90
25436;DHT22;13363;52.772;-3.890;2022-07-06T03:10:00;16.70;99.90
25436;DHT22;13363;52.772;-3.890;2022-07-06T03:12:26;16.70;99.90
25436;DHT22;13363;52.772;-3.890;2022-07-06T03:14:52;16.70;99.90
25436;DHT22;13363;52.772;-3.890;2022-07-06T03:17:17;16.80;99.90
25436;DHT22;13363;52.772;-3.890;2022-07-06T03:19:43;16.70;99.90
25436;DHT22;13363;52.772;-3.890;2022-07-06T03:22:09;16.70;99.90
25436;DHT22;13363;52.772;-3.890;2022-07-06T03:24:35;16.70;99.90
25436;DHT22;13363;52.772;-3.890;2022-07-06T03:27:01;16.70;99.90
25436;DHT22;13363;52.772;-3.890;2022-07-06T03:29:27;16.70;99.90
25436;DHT22;13363;52.772;-3.890;2022-07-06T03:31:52;16.70;99.90
25436;DHT22;13363;52.772;-3.890;2022-07-06T03:34:18;16.70;99.90
25436;DHT22;13363;52.772;-3.890;2022-07-06T03:36:44;16.70;99.90
25436;DHT22;13363;52.772;-3.890;2022-07-06T03:39:10;16.70;99.90
25436;DHT22;13363;52.772;-3.890;2022-07-06T03:41:36;16.70;99.90
25436;DHT22;13363;52.772;-3.890;2022-07-06T03:44:01;16.70;99.90
25436;DHT22;13363;52.772;-3.890;2022-07-06T03:46:28;16.70;99.90
25436;DHT22;13363;52.772;-3.890;2022-07-06T03:48:54;16.70;99.90
25436;DHT22;13363;52.772;-3.890;2022-07-06T03:51:20;16.70;99.90
25436;DHT22;13363;52.772;-3.890;2022-07-06T03:53:46;16.70;99.90
25436;DHT22;13363;52.772;-3.890;2022-07-06T03:56:12;16.60;99.90
25436;DHT22;13363;52.772;-3.890;2022-07-06T03:58:54;16.60;99.90
25436;DHT22;13363;52.772;-3.890;2022-07-06T04:01:20;16.60;99.90
25436;DHT22;13363;52.772;-3.890;2022-07-06T04:03:45;16.60;99.90
25436;DHT22;13363;52.772;-3.890;2022-07-06T04:06:11;16.60;99.90
25436;DHT22;13363;52.772;-3.890;2022-07-06T04:08:37;16.60;99.90
25436;DHT22;13363;52.772;-3.890;2022-07-06T04:11:03;16.60;99.90
25436;DHT22;13363;52.772;-3.890;2022-07-06T04:13:29;16.60;99.90
25436;DHT22;13363;52.772;-3.890;2022-07-06T04:15:55;16.60;99.90
25436;DHT22;13363;52.772;-3.890;2022-07-06T04:18:21;16.60;99.90
25436;DHT22;13363;52.772;-3.890;2022-07-06T04:20:46;16.60;99.90
25436;DHT22;13363;52.772;-3.890;2022-07-06T04:23:12;16.70;99.90
25436;DHT22;13363;52.772;-3.890;2022-07-06T04:25:38;16.70;99.90
25436;DHT22;13363;52.772;-3.890;2022-07-06T04:28:04;16.70;99.90
25436;DHT22;13363;52.772;-3.890;2022-07-06T04:30:30;16.70;99.90
25436;DHT22;13363;52.772;-3.890;2022-07-06T04:32:56;16.60;99.90
25436;DHT22;13363;52.772;-3.890;2022-07-06T04:35:22;16.60;99.90
25436;DHT22;13363;52.772;-3.890;2022-07-06T04:37:48;16.60;99.90
25436;DHT22;13363;52.772;-3.890;2022-07-06T04:40:14;16.60;99.90
25436;DHT22;13363;52.772;-3.890;2022-07-06T04:42:40;16.60;99.90
25436;DHT22;13363;52.772;-3.890;2022-07-06T04:45:06;16.60;99.90
25436;DHT22;13363;52.772;-3.890;2022-07-06T04:47:33;16.60;99.90
25436;DHT22;13363;52.772;-3.890;2022-07-06T04:49:58;16.60;99.90
25436;DHT22;13363;52.772;-3.890;2022-07-06T04:52:24;16.60;99.90
25436;DHT22;13363;52.772;-3.890;2022-07-06T04:54:50;16.60;99.90
25436;DHT22;13363;52.772;-3.890;2022-07-06T04:57:16;16.60;99.90
25436;DHT22;13363;52.772;-3.890;2022-07-06T04:59:42;16.60;99.90
25436;DHT22;13363;52.772;-3.890;2022-07-06T05:02:08;16.60;99.90
25436;DHT22;13363;52.772;-3.890;2022-07-06T05:04:34;16.70;99.90
25436;DHT22;13363;52.772;-3.890;2022-07-06T05:07:00;16.70;99.90
25436;DHT22;13363;52.772;-3.890;2022-07-06T05:09:25;16.70;99.90
25436;DHT22;13363;52.772;-3.890;2022-07-06T05:11:51;16.70;99.90
25436;DHT22;13363;52.772;-3.890;2022-07-06T05:14:17;16.70;99.90
25436;DHT22;13363;52.772;-3.890;2022-07-06T05:16:43;16.70;99.90
25436;DHT22;13363;52.772;-3.890;2022-07-06T05:19:09;16.80;99.90
25436;DHT22;13363;52.772;-3.890;2022-07-06T05:21:35;16.80;99.90
25436;DHT22;13363;52.772;-3.890;2022-07-06T05:24:00;16.80;99.90
25436;DHT22;13363;52.772;-3.890;2022-07-06T05:26:26;16.80;99.90
25436;DHT22;13363;52.772;-3.890;2022-07-06T05:28:52;16.90;99.90
25436;DHT22;13363;52.772;-3.890;2022-07-06T05:31:18;16.90;99.90
25436;DHT22;13363;52.772;-3.890;2022-07-06T05:33:44;16.90;99.90
25436;DHT22;13363;52.772;-3.890;2022-07-06T05:36:10;16.90;99.90
25436;DHT22;13363;52.772;-3.890;2022-07-06T05:38:35;17.00;99.90
25436;DHT22;13363;52.772;-3.890;2022-07-06T05:41:01;16.90;99.90
25436;DHT22;13363;52.772;-3.890;2022-07-06T05:43:27;16.90;99.90
25436;DHT22;13363;52.772;-3.890;2022-07-06T05:45:53;17.00;99.90
25436;DHT22;13363;52.772;-3.890;2022-07-06T05:48:19;16.90;99.90
25436;DHT22;13363;52.772;-3.890;2022-07-06T05:51:03;17.00;99.90
25436;DHT22;13363;52.772;-3.890;2022-07-06T05:53:29;17.00;99.90
25436;DHT22;13363;52.772;-3.890;2022-07-06T05:55:55;17.00;99.90
25436;DHT22;13363;52.772;-3.890;2022-07-06T05:58:20;17.00;99.90
25436;DHT22;13363;52.772;-3.890;2022-07-06T06:00:46;17.00;99.90
25436;DHT22;13363;52.772;-3.890;2022-07-06T06:03:12;17.00;99.90
25436;DHT22;13363;52.772;-3.890;2022-07-06T06:05:38;17.00;99.90
25436;DHT22;13363;52.772;-3.890;2022-07-06T06:08:05;17.00;99.90
25436;DHT22;13363;52.772;-3.890;2022-07-06T06:10:30;17.00;99.90
25436;DHT22;13363;52.772;-3.890;2022-07-06T06:12:57;16.90;99.90
25436;DHT22;13363;52.772;-3.890;2022-07-06T06:15:23;16.90;99.90
25436;DHT22;13363;52.772;-3.890;2022-07-06T06:17:48;16.90;99.90
25436;DHT22;13363;52.772;-3.890;2022-07-06T06:20:15;16.90;99.90
25436;DHT22;13363;52.772;-3.890;2022-07-06T06:22:45;17.00;99.90
25436;DHT22;13363;52.772;-3.890;2022-07-06T06:25:14;17.00;99.90
25436;DHT22;13363;52.772;-3.890;2022-07-06T06:27:40;17.10;99.90
25436;DHT22;13363;52.772;-3.890;2022-07-06T06:30:06;17.20;99.90
25436;DHT22;13363;52.772;-3.890;2022-07-06T06:32:32;17.20;99.90
25436;DHT22;13363;52.772;-3.890;2022-07-06T06:34:58;17.20;99.90
25436;DHT22;13363;52.772;-3.890;2022-07-06T06:37:23;17.20;99.90
25436;DHT22;13363;52.772;-3.890;2022-07-06T06:39:50;17.30;99.90
25436;DHT22;13363;52.772;-3.890;2022-07-06T06:42:17;17.30;99.90
25436;DHT22;13363;52.772;-3.890;2022-07-06T06:44:43;17.30;99.90
25436;DHT22;13363;52.772;-3.890;2022-07-06T06:47:08;17.20;99.90
25436;DHT22;13363;52.772;-3.890;2022-07-06T06:49:34;17.30;99.90
25436;DHT22;13363;52.772;-3.890;2022-07-06T06:52:00;17.30;99.90
25436;DHT22;13363;52.772;-3.890;2022-07-06T06:54:26;17.40;99.90
25436;DHT22;13363;52.772;-3.890;2022-07-06T06:56:52;17.30;99.90
25436;DHT22;13363;52.772;-3.890;2022-07-06T06:59:18;17.40;99.90
25436;DHT22;13363;52.772;-3.890;2022-07-06T07:01:45;17.40;99.90
25436;DHT22;13363;52.772;-3.890;2022-07-06T07:04:11;17.40;99.90
25436;DHT22;13363;52.772;-3.890;2022-07-06T07:06:37;17.50;99.90
25436;DHT22;13363;52.772;-3.890;2022-07-06T07:09:03;17.40;99.90
25436;DHT22;13363;52.772;-3.890;2022-07-06T07:11:29;17.40;99.90
25436;DHT22;13363;52.772;-3.890;2022-07-06T07:13:55;17.50;99.90
25436;DHT22;13363;52.772;-3.890;2022-07-06T07:16:21;17.60;99.90
25436;DHT22;13363;52.772;-3.890;2022-07-06T07:18:47;17.60;99.90
25436;DHT22;13363;52.772;-3.890;2022-07-06T07:21:13;17.60;99.90
25436;DHT22;13363;52.772;-3.890;2022-07-06T07:23:39;17.70;99.90
25436;DHT22;13363;52.772;-3.890;2022-07-06T07:26:05;17.70;99.90
25436;DHT22;13363;52.772;-3.890;2022-07-06T07:28:32;17.70;99.90
25436;DHT22;13363;52.772;-3.890;2022-07-06T07:30:57;17.60;99.90
25436;DHT22;13363;52.772;-3.890;2022-07-06T07:33:23;17.50;99.90
25436;DHT22;13363;52.772;-3.890;2022-07-06T07:35:49;17.50;99.90
25436;DHT22;13363;52.772;-3.890;2022-07-06T07:38:15;17.50;99.90
25436;DHT22;13363;52.772;-3.890;2022-07-06T07:40:41;17.40;99.90
25436;DHT22;13363;52.772;-3.890;2022-07-06T07:43:07;17.40;99.90
25436;DHT22;13363;52.772;-3.890;2022-07-06T07:45:34;17.30;99.90
25436;DHT22;13363;52.772;-3.890;2022-07-06T07:47:59;17.30;99.90
25436;DHT22;13363;52.772;-3.890;2022-07-06T07:50:25;17.40;99.90
25436;DHT22;13363;52.772;-3.890;2022-07-06T07:52:52;17.40;99.90
25436;DHT22;13363;52.772;-3.890;2022-07-06T07:55:18;17.50;99.90
25436;DHT22;13363;52.772;-3.890;2022-07-06T07:57:44;17.40;99.90
25436;DHT22;13363;52.772;-3.890;2022-07-06T08:00:10;17.50;99.90
25436;DHT22;13363;52.772;-3.890;2022-07-06T08:02:37;17.70;99.90
25436;DHT22;13363;52.772;-3.890;2022-07-06T08:05:03;17.80;99.90
25436;DHT22;13363;52.772;-3.890;2022-07-06T08:07:29;17.90;99.90
25436;DHT22;13363;52.772;-3.890;2022-07-06T08:09:55;17.90;99.90
25436;DHT22;13363;52.772;-3.890;2022-07-06T08:12:21;17.70;99.90
25436;DHT22;13363;52.772;-3.890;2022-07-06T08:14:47;17.80;99.90
25436;DHT22;13363;52.772;-3.890;2022-07-06T08:17:12;17.90;99.90
25436;DHT22;13363;52.772;-3.890;2022-07-06T08:19:38;18.00;99.90
25436;DHT22;13363;52.772;-3.890;2022-07-06T08:22:04;18.00;99.90
25436;DHT22;13363;52.772;-3.890;2022-07-06T08:24:34;18.10;99.90
25436;DHT22;13363;52.772;-3.890;2022-07-06T08:27:00;18.20;99.90
25436;DHT22;13363;52.772;-3.890;2022-07-06T08:29:26;18.20;99.90
25436;DHT22;13363;52.772;-3.890;2022-07-06T08:31:52;18.50;99.90
25436;DHT22;13363;52.772;-3.890;2022-07-06T08:34:18;18.90;99.90
25436;DHT22;13363;52.772;-3.890;2022-07-06T08:36:43;19.10;99.90
25436;DHT22;13363;52.772;-3.890;2022-07-06T08:39:09;19.10;99.90
25436;DHT22;13363;52.772;-3.890;2022-07-06T08:41:36;19.20;99.90
25436;DHT22;13363;52.772;-3.890;2022-07-06T08:44:04;19.30;99.90
25436;DHT22;13363;52.772;-3.890;2022-07-06T08:46:31;19.30;99.90
25436;DHT22;13363;52.772;-3.890;2022-07-06T08:48:57;19.30;99.90
25436;DHT22;13363;52.772;-3.890;2022-07-06T08:51:24;19.30;99.90
25436;DHT22;13363;52.772;-3.890;2022-07-06T08:53:51;19.30;99.90
25436;DHT22;13363;52.772;-3.890;2022-07-06T08:56:19;19.30;99.90
25436;DHT22;13363;52.772;-3.890;2022-07-06T08:58:45;19.20;99.90
25436;DHT22;13363;52.772;-3.890;2022-07-06T09:01:12;19.10;99.90
25436;DHT22;13363;52.772;-3.890;2022-07-06T09:03:41;18.90;99.90
25436;DHT22;13363;52.772;-3.890;2022-07-06T09:06:08;18.80;99.90
25436;DHT22;13363;52.772;-3.890;2022-07-06T09:08:34;18.90;99.90
25436;DHT22;13363;52.772;-3.890;2022-07-06T09:11:02;18.80;99.90
25436;DHT22;13363;52.772;-3.890;2022-07-06T09:13:29;18.90;99.90
25436;DHT22;13363;52.772;-3.890;2022-07-06T09:15:55;19.20;99.90
25436;DHT22;13363;52.772;-3.890;2022-07-06T09:18:22;19.70;99.90
25436;DHT22;13363;52.772;-3.890;2022-07-06T09:20:48;20.00;99.90
25436;DHT22;13363;52.772;-3.890;2022-07-06T09:23:16;20.00;99.90
25436;DHT22;13363;52.772;-3.890;2022-07-06T09:25:47;19.80;99.90
25436;DHT22;13363;52.772;-3.890;2022-07-06T09:28:15;19.60;99.90
25436;DHT22;13363;52.772;-3.890;2022-07-06T09:30:42;19.50;99.90
25436;DHT22;13363;52.772;-3.890;2022-07-06T09:33:09;19.60;99.90
25436;DHT22;13363;52.772;-3.890;2022-07-06T09:35:38;19.20;99.90
25436;DHT22;13363;52.772;-3.890;2022-07-06T09:38:09;19.10;99.90
25436;DHT22;13363;52.772;-3.890;2022-07-06T09:40:44;19.10;99.90
25436;DHT22;13363;52.772;-3.890;2022-07-06T09:43:22;19.20;99.90
25436;DHT22;13363;52.772;-3.890;2022-07-06T09:45:57;19.00;99.90
25436;DHT22;13363;52.772;-3.890;2022-07-06T09:48:27;19.00;99.90
25436;DHT22;13363;52.772;-3.890;2022-07-06T09:51:01;19.10;99.90
25436;DHT22;13363;52.772;-3.890;2022-07-06T09:53:35;19.30;99.90
25436;DHT22;13363;52.772;-3.890;2022-07-06T09:56:01;19.40;99.90
25436;DHT22;13363;52.772;-3.890;2022-07-06T09:58:28;19.40;99.90
25436;DHT22;13363;52.772;-3.890;2022-07-06T10:00:54;19.20;99.90
25436;DHT22;13363;52.772;-3.890;2022-07-06T10:03:20;19.20;99.90
25436;DHT22;13363;52.772;-3.890;2022-07-06T10:05:47;19.20;99.90
25436;DHT22;13363;52.772;-3.890;2022-07-06T10:08:16;18.90;99.90
25436;DHT22;13363;52.772;-3.890;2022-07-06T10:10:43;19.00;99.90
25436;DHT22;13363;52.772;-3.890;2022-07-06T10:13:10;18.70;99.90
25436;DHT22;13363;52.772;-3.890;2022-07-06T10:15:39;18.70;99.90
25436;DHT22;13363;52.772;-3.890;2022-07-06T10:18:07;18.70;99.90
25436;DHT22;13363;52.772;-3.890;2022-07-06T10:20:36;19.00;99.90
25436;DHT22;13363;52.772;-3.890;2022-07-06T10:23:03;19.20;99.90
25436;DHT22;13363;52.772;-3.890;2022-07-06T10:25:32;19.20;99.90
25436;DHT22;13363;52.772;-3.890;2022-07-06T10:27:59;19.10;99.90
25436;DHT22;13363;52.772;-3.890;2022-07-06T10:30:25;19.00;99.90
25436;DHT22;13363;52.772;-3.890;2022-07-06T10:32:55;18.90;99.90
25436;DHT22;13363;52.772;-3.890;2022-07-06T10:35:21;19.00;99.90
25436;DHT22;13363;52.772;-3.890;2022-07-06T10:38:08;19.10;99.90
25436;DHT22;13363;52.772;-3.890;2022-07-06T10:40:37;18.90;99.90
25436;DHT22;13363;52.772;-3.890;2022-07-06T10:43:21;18.60;99.90
25436;DHT22;13363;52.772;-3.890;2022-07-06T10:50:52;18.20;99.90
25436;DHT22;13363;52.772;-3.890;2022-07-06T10:53:27;17.90;99.90
25436;DHT22;13363;52.772;-3.890;2022-07-06T10:55:56;18.10;99.90
25436;DHT22;13363;52.772;-3.890;2022-07-06T10:58:47;18.30;99.90
25436;DHT22;13363;52.772;-3.890;2022-07-06T11:01:14;18.20;99.90
25436;DHT22;13363;52.772;-3.890;2022-07-06T11:03:46;18.00;99.90
25436;DHT22;13363;52.772;-3.890;2022-07-06T11:06:15;17.70;99.90
25436;DHT22;13363;52.772;-3.890;2022-07-06T11:08:58;17.40;99.90
25436;DHT22;13363;52.772;-3.890;2022-07-06T11:14:09;17.20;99.90
25436;DHT22;13363;52.772;-3.890;2022-07-06T11:17:00;17.20;99.90
25436;DHT22;13363;52.772;-3.890;2022-07-06T11:19:27;17.30;99.90
25436;DHT22;13363;52.772;-3.890;2022-07-06T11:22:04;17.40;99.90
25436;DHT22;13363;52.772;-3.890;2022-07-06T11:24:32;17.40;99.90
25436;DHT22;13363;52.772;-3.890;2022-07-06T11:26:59;17.30;99.90
25436;DHT22;13363;52.772;-3.890;2022-07-06T11:29:27;17.30;99.90
25436;DHT22;13363;52.772;-3.890;2022-07-06T11:31:57;17.40;99.90
25436;DHT22;13363;52.772;-3.890;2022-07-06T11:34:30;17.60;99.90
25436;DHT22;13363;52.772;-3.890;2022-07-06T11:37:00;17.50;99.90
25436;DHT22;13363;52.772;-3.890;2022-07-06T11:39:31;17.20;99.90
25436;DHT22;13363;52.772;-3.890;2022-07-06T11:41:58;17.30;99.90
25436;DHT22;13363;52.772;-3.890;2022-07-06T11:44:24;17.50;99.90
25436;DHT22;13363;52.772;-3.890;2022-07-06T11:46:50;17.60;99.90
25436;DHT22;13363;52.772;-3.890;2022-07-06T11:49:17;17.40;99.90
25436;DHT22;13363;52.772;-3.890;2022-07-06T11:51:45;17.20;99.90
25436;DHT22;13363;52.772;-3.890;2022-07-06T11:54:16;17.20;99.90
25436;DHT22;13363;52.772;-3.890;2022-07-06T11:59:11;17.20;99.90
25436;DHT22;13363;52.772;-3.890;2022-07-06T12:01:37;17.30;99.90
25436;DHT22;13363;52.772;-3.890;2022-07-06T12:04:09;17.30;99.90
25436;DHT22;13363;52.772;-3.890;2022-07-06T12:06:36;17.10;99.90
25436;DHT22;13363;52.772;-3.890;2022-07-06T12:09:02;17.00;99.90
25436;DHT22;13363;52.772;-3.890;2022-07-06T12:11:32;17.10;99.90
25436;DHT22;13363;52.772;-3.890;2022-07-06T12:14:12;17.10;99.90
25436;DHT22;13363;52.772;-3.890;2022-07-06T12:16:39;17.10;99.90
25436;DHT22;13363;52.772;-3.890;2022-07-06T12:22:26;17.00;99.90
25436;DHT22;13363;52.772;-3.890;2022-07-06T12:24:52;17.00;99.90
25436;DHT22;13363;52.772;-3.890;2022-07-06T12:27:19;16.90;99.90
25436;DHT22;13363;52.772;-3.890;2022-07-06T12:29:47;17.00;99.90
25436;DHT22;13363;52.772;-3.890;2022-07-06T12:32:18;17.00;99.90
25436;DHT22;13363;52.772;-3.890;2022-07-06T12:34:44;17.10;99.90
25436;DHT22;13363;52.772;-3.890;2022-07-06T12:37:10;17.00;99.90
25436;DHT22;13363;52.772;-3.890;2022-07-06T12:39:45;17.10;99.90
25436;DHT22;13363;52.772;-3.890;2022-07-06T12:42:14;17.10;99.90
25436;DHT22;13363;52.772;-3.890;2022-07-06T12:44:48;17.20;99.90
25436;DHT22;13363;52.772;-3.890;2022-07-06T12:47:21;17.30;99.90
25436;DHT22;13363;52.772;-3.890;2022-07-06T12:50:03;17.30;99.90
25436;DHT22;13363;52.772;-3.890;2022-07-06T12:52:30;17.40;99.90
25436;DHT22;13363;52.772;-3.890;2022-07-06T12:55:00;17.50;99.90
25436;DHT22;13363;52.772;-3.890;2022-07-06T12:57:26;17.60;99.90
25436;DHT22;13363;52.772;-3.890;2022-07-06T12:59:56;17.70;99.90
25436;DHT22;13363;52.772;-3.890;2022-07-06T13:02:34;18.00;99.90
25436;DHT22;13363;52.772;-3.890;2022-07-06T13:05:07;18.10;99.90
25436;DHT22;13363;52.772;-3.890;2022-07-06T13:07:36;18.10;99.90
25436;DHT22;13363;52.772;-3.890;2022-07-06T13:10:06;18.00;99.90
25436;DHT22;13363;52.772;-3.890;2022-07-06T13:12:32;18.00;99.90
25436;DHT22;13363;52.772;-3.890;2022-07-06T13:14:58;18.00;99.90
25436;DHT22;13363;52.772;-3.890;2022-07-06T13:17:24;18.10;99.90
25436;DHT22;13363;52.772;-3.890;2022-07-06T13:19:50;18.00;99.90
25436;DHT22;13363;52.772;-3.890;2022-07-06T13:22:16;17.90;99.90
25436;DHT22;13363;52.772;-3.890;2022-07-06T13:24:42;17.80;99.90
25436;DHT22;13363;52.772;-3.890;2022-07-06T13:27:09;17.70;99.90
25436;DHT22;13363;52.772;-3.890;2022-07-06T13:29:35;17.50;99.90
25436;DHT22;13363;52.772;-3.890;2022-07-06T13:32:01;17.60;99.90
25436;DHT22;13363;52.772;-3.890;2022-07-06T13:34:27;17.60;99.90
25436;DHT22;13363;52.772;-3.890;2022-07-06T13:36:53;17.60;99.90
25436;DHT22;13363;52.772;-3.890;2022-07-06T13:39:19;17.60;99.90
25436;DHT22;13363;52.772;-3.890;2022-07-06T13:41:45;17.80;99.90
25436;DHT22;13363;52.772;-3.890;2022-07-06T13:44:11;17.90;99.90
25436;DHT22;13363;52.772;-3.890;2022-07-06T13:46:38;17.80;99.90
25436;DHT22;13363;52.772;-3.890;2022-07-06T13:49:05;17.80;99.90
25436;DHT22;13363;52.772;-3.890;2022-07-06T13:51:31;17.80;99.90
25436;DHT22;13363;52.772;-3.890;2022-07-06T13:54:01;17.90;99.90
25436;DHT22;13363;52.772;-3.890;2022-07-06T13:56:28;18.00;99.90
25436;DHT22;13363;52.772;-3.890;2022-07-06T13:58:54;18.20;99.90
25436;DHT22;13363;52.772;-3.890;2022-07-06T14:01:20;18.40;99.90
25436;DHT22;13363;52.772;-3.890;2022-07-06T14:03:46;18.50;99.90
25436;DHT22;13363;52.772;-3.890;2022-07-06T14:06:13;18.40;99.90
25436;DHT22;13363;52.772;-3.890;2022-07-06T14:08:40;18.60;99.90
25436;DHT22;13363;52.772;-3.890;2022-07-06T14:11:08;18.60;99.90
25436;DHT22;13363;52.772;-3.890;2022-07-06T14:13:35;18.60;99.90
25436;DHT22;13363;52.772;-3.890;2022-07-06T14:16:01;18.80;99.90
25436;DHT22;13363;52.772;-3.890;2022-07-06T14:18:28;19.00;99.90
25436;DHT22;13363;52.772;-3.890;2022-07-06T14:20:54;18.90;99.90
25436;DHT22;13363;52.772;-3.890;2022-07-06T14:23:21;18.80;99.90
25436;DHT22;13363;52.772;-3.890;2022-07-06T14:25:48;18.70;99.90
25436;DHT22;13363;52.772;-3.890;2022-07-06T14:28:14;18.60;99.90
25436;DHT22;13363;52.772;-3.890;2022-07-06T14:30:41;18.60;99.90
25436;DHT22;13363;52.772;-3.890;2022-07-06T14:33:09;18.40;99.90
25436;DHT22;13363;52.772;-3.890;2022-07-06T14:35:36;18.30;99.90
25436;DHT22;13363;52.772;-3.890;2022-07-06T14:38:03;18.30;99.90
25436;DHT22;13363;52.772;-3.890;2022-07-06T14:40:30;18.30;99.90
25436;DHT22;13363;52.772;-3.890;2022-07-06T14:42:56;18.10;99.90
25436;DHT22;13363;52.772;-3.890;2022-07-06T14:45:22;18.00;99.90
25436;DHT22;13363;52.772;-3.890;2022-07-06T14:47:48;18.00;99.90
25436;DHT22;13363;52.772;-3.890;2022-07-06T14:50:14;18.10;99.90
25436;DHT22;13363;52.772;-3.890;2022-07-06T14:52:40;18.10;99.90
25436;DHT22;13363;52.772;-3.890;2022-07-06T14:55:07;18.20;99.90
25436;DHT22;13363;52.772;-3.890;2022-07-06T14:57:33;18.20;99.90
25436;DHT22;13363;52.772;-3.890;2022-07-06T14:59:59;18.20;99.90
25436;DHT22;13363;52.772;-3.890;2022-07-06T15:02:25;18.20;99.90
25436;DHT22;13363;52.772;-3.890;2022-07-06T15:04:52;18.20;99.90
25436;DHT22;13363;52.772;-3.890;2022-07-06T15:07:18;18.20;99.90
25436;DHT22;13363;52.772;-3.890;2022-07-06T15:09:43;18.30;99.90
25436;DHT22;13363;52.772;-3.890;2022-07-06T15:12:10;18.50;99.90
25436;DHT22;13363;52.772;-3.890;2022-07-06T15:14:36;18.50;99.90
25436;DHT22;13363;52.772;-3.890;2022-07-06T15:17:02;18.50;99.90
25436;DHT22;13363;52.772;-3.890;2022-07-06T15:19:28;18.50;99.90
25436;DHT22;13363;52.772;-3.890;2022-07-06T15:21:54;18.60;99.90
25436;DHT22;13363;52.772;-3.890;2022-07-06T15:24:20;18.60;99.90
25436;DHT22;13363;52.772;-3.890;2022-07-06T15:26:46;18.50;99.90
25436;DHT22;13363;52.772;-3.890;2022-07-06T15:29:13;18.50;99.90